Terminal Aerodrome Forecast
Issued by NWS Nashville, TN

Home | Current Version | Previous Version | Text Only | Print | Product List | Glossary On
Versions: 1 2 3 4 5 6 7 8 9 10 11 12 13 14 15 16 17 18 19 20 21
000
FTUS44 KOHX 290500
TAFBNA
TAF
KBNA 290522Z 2906/3006 13004KT P6SM SCT250
     FM291200 18010KT P6SM OVC040
     FM291500 19012G22KT P6SM OVC025
     FM300000 19012KT P6SM OVC030=

USA.gov is the U.S. government's official web portal to all federal, state and local government web resources and services.